Time;durP1;ratioP1;P1;durP2;ratioP2;P2;SDS_P1;SDS_P2;PMS_P1;PMS_P2;Temp;Humidity;BMP_temperature;BMP_pressure;BME280_temperature;BME280_humidity;BME280_pressure;Samples;Min_cycle;Max_cycle;Signal;HPM_P1;HPM_P2
2022/06/11 00:01:59;;;;;;;10.02;5.55;;;17.40;99.90;;;;;;4969025;28;20047;-88
2022/06/11 00:04:29;;;;;;;6.13;5.47;;;17.50;99.90;;;;;;4973743;28;20141;-89
2022/06/11 00:07:09;;;;;;;7.68;5.38;;;17.30;99.90;;;;;;4954527;28;20073;-90
2022/06/11 00:09:36;;;;;;;7.18;4.78;;;18.30;99.90;;;;;;4969223;28;20053;-86
2022/06/11 00:12:01;;;;;;;5.53;4.82;;;17.30;99.90;;;;;;4964794;28;20042;-88
2022/06/11 00:14:30;;;;;;;8.18;5.63;;;17.20;99.90;;;;;;4973316;28;20398;-86
2022/06/11 00:16:57;;;;;;;9.05;6.28;;;17.20;99.90;;;;;;4968419;28;20051;-89
2022/06/11 00:19:23;;;;;;;8.88;5.88;;;17.20;99.90;;;;;;4972770;28;20039;-85
2022/06/11 00:21:51;;;;;;;6.55;5.07;;;17.10;99.90;;;;;;4976779;28;20133;-86
2022/06/11 00:24:18;;;;;;;12.07;5.25;;;17.10;99.90;;;;;;4944432;28;20043;-84
2022/06/11 00:26:45;;;;;;;9.52;4.60;;;18.00;99.90;;;;;;4977208;28;20047;-87
2022/06/11 00:29:13;;;;;;;7.60;3.90;;;17.00;99.90;;;;;;4974342;28;20043;-87
2022/06/11 00:31:40;;;;;;;8.57;4.28;;;16.90;99.90;;;;;;4977515;28;20050;-88
2022/06/11 00:34:06;;;;;;;9.48;4.35;;;16.90;99.90;;;;;;4978010;28;20059;-87
2022/06/11 00:36:33;;;;;;;10.50;3.58;;;16.80;99.90;;;;;;4979304;28;20178;-86
2022/06/11 00:39:00;;;;;;;6.20;3.72;;;16.80;99.90;;;;;;4974985;28;20051;-82
2022/06/11 00:41:28;;;;;;;8.48;3.55;;;16.70;99.90;;;;;;4959365;28;20043;-86
2022/06/11 00:43:55;;;;;;;10.00;3.00;;;16.70;99.90;;;;;;4971654;28;20049;-85
2022/06/11 00:46:53;;;;;;;9.65;3.25;;;17.10;99.90;;;;;;4975210;28;20360;-88
2022/06/11 00:49:34;;;;;;;9.52;3.10;;;16.60;99.90;;;;;;4972713;28;20511;-87
2022/06/11 00:52:22;;;;;;;6.18;2.88;;;16.40;99.90;;;;;;4988464;28;20042;-92
2022/06/11 00:55:12;;;;;;;7.78;2.92;;;16.40;99.90;;;;;;4974729;28;20043;-94
2022/06/11 00:57:49;;;;;;;6.30;2.38;;;16.40;99.90;;;;;;4957075;28;20072;-91
2022/06/11 01:00:23;;;;;;;6.50;2.63;;;16.40;99.90;;;;;;4991244;28;20112;-90
2022/06/11 01:02:48;;;;;;;8.23;3.08;;;16.20;99.90;;;;;;4969709;28;20051;-85
2022/06/11 01:05:20;;;;;;;6.65;2.75;;;16.30;99.90;;;;;;4972796;28;20380;-93
2022/06/11 01:07:52;;;;;;;9.20;2.72;;;16.30;99.90;;;;;;4974833;28;20049;-94
2022/06/11 01:10:21;;;;;;;10.48;2.60;;;16.20;99.90;;;;;;4968492;28;20196;-85
2022/06/11 01:13:31;;;;;;;7.53;2.33;;;16.20;99.90;;;;;;4970765;28;20521;-94
2022/06/11 01:16:23;;;;;;;7.82;2.20;;;16.10;99.90;;;;;;4970464;28;20402;-88
2022/06/11 01:19:11;;;;;;;6.95;2.33;;;17.00;99.90;;;;;;4984173;28;20050;-85
2022/06/11 01:21:56;;;;;;;8.32;1.83;;;16.00;99.90;;;;;;4965721;28;20106;-92
2022/06/11 01:25:03;;;;;;;8.27;2.05;;;15.90;99.90;;;;;;4993291;28;20113;-90
2022/06/11 01:27:44;;;;;;;6.20;2.15;;;15.90;99.90;;;;;;4964942;28;20564;-94
2022/06/11 01:30:13;;;;;;;9.95;2.25;;;15.90;99.90;;;;;;4954995;28;20051;-95
2022/06/11 01:33:00;;;;;;;9.80;2.20;;;15.90;99.90;;;;;;4983646;28;20110;-94
2022/06/11 01:35:51;;;;;;;6.72;1.80;;;15.90;99.90;;;;;;4985040;28;20043;-90
2022/06/11 01:38:32;;;;;;;4.15;1.77;;;15.90;99.90;;;;;;4974519;28;20559;-94
2022/06/11 01:41:33;;;;;;;8.02;2.28;;;15.90;99.90;;;;;;4958240;28;20055;-93
2022/06/11 01:44:09;;;;;;;9.77;2.50;;;15.80;99.90;;;;;;4971148;28;20050;-93
2022/06/11 01:46:39;;;;;;;7.45;2.15;;;15.70;99.90;;;;;;4972807;28;20086;-92
2022/06/11 01:49:21;;;;;;;6.03;1.30;;;15.80;99.90;;;;;;4963736;28;20047;-93
2022/06/11 01:52:08;;;;;;;9.15;2.13;;;15.70;99.90;;;;;;4975763;28;20038;-91
2022/06/11 01:54:43;;;;;;;8.68;1.67;;;15.60;99.90;;;;;;4969401;28;20050;-92
2022/06/11 01:57:48;;;;;;;7.38;1.70;;;15.60;99.90;;;;;;4974827;28;20438;-95
2022/06/11 02:00:22;;;;;;;8.80;2.22;;;15.50;99.90;;;;;;4957807;28;20042;-92
2022/06/11 02:03:05;;;;;;;10.07;2.58;;;15.50;99.90;;;;;;4971698;28;20094;-91
2022/06/11 02:06:02;;;;;;;9.30;2.05;;;15.50;99.90;;;;;;4973315;28;20071;-93
2022/06/11 02:09:01;;;;;;;11.07;2.13;;;15.40;99.90;;;;;;4969262;28;20384;-93
2022/06/11 02:11:42;;;;;;;9.10;2.20;;;15.40;99.90;;;;;;4967008;28;20047;-94
2022/06/11 02:14:36;;;;;;;4.57;1.80;;;15.40;99.90;;;;;;4960253;28;20043;-91
2022/06/11 02:17:08;;;;;;;12.10;2.45;;;15.30;99.90;;;;;;4978614;28;20537;-91
2022/06/11 02:19:54;;;;;;;8.88;1.80;;;15.40;99.90;;;;;;4967582;28;20073;-87
2022/06/11 02:22:52;;;;;;;11.27;2.28;;;15.30;99.90;;;;;;4978189;28;20038;-92
2022/06/11 02:25:26;;;;;;;8.93;2.10;;;15.30;99.90;;;;;;4972158;28;20047;-93
2022/06/11 02:27:56;;;;;;;9.90;2.28;;;15.30;99.90;;;;;;4986839;28;20047;-84
2022/06/11 02:30:25;;;;;;;6.57;2.30;;;16.20;99.90;;;;;;4973735;28;20493;-91
2022/06/11 02:32:53;;;;;;;7.75;1.83;;;15.20;99.90;;;;;;4972222;28;20054;-92
2022/06/11 02:35:30;;;;;;;7.70;1.73;;;15.90;99.90;;;;;;4959791;28;20137;-91
2022/06/11 02:38:00;;;;;;;7.85;2.67;;;15.20;99.90;;;;;;4972289;28;20406;-88
2022/06/11 02:40:29;;;;;;;7.97;2.15;;;15.20;99.90;;;;;;4987582;28;20070;-91
2022/06/11 02:42:55;;;;;;;8.85;2.35;;;15.20;99.90;;;;;;4966944;28;20043;-91
2022/06/11 02:45:21;;;;;;;7.30;2.03;;;15.10;99.90;;;;;;4972410;28;20487;-92
2022/06/11 02:47:53;;;;;;;11.05;2.15;;;15.10;99.90;;;;;;4966709;28;20046;-92
2022/06/11 02:50:27;;;;;;;13.25;2.85;;;16.40;99.90;;;;;;4969877;28;20090;-91
2022/06/11 02:52:54;;;;;;;7.90;2.17;;;15.10;99.90;;;;;;4951362;28;20046;-89
2022/06/11 02:55:21;;;;;;;8.93;2.38;;;15.10;99.90;;;;;;4952570;28;20047;-91
2022/06/11 02:57:47;;;;;;;9.93;2.08;;;15.00;99.90;;;;;;4972580;28;20525;-89
2022/06/11 03:00:19;;;;;;;5.45;2.15;;;15.80;99.90;;;;;;4968142;28;20562;-93
2022/06/11 03:02:47;;;;;;;10.05;2.55;;;14.90;99.90;;;;;;4972128;28;20035;-92
2022/06/11 03:05:14;;;;;;;7.80;2.83;;;15.60;99.90;;;;;;4972567;28;20489;-89
2022/06/11 03:07:40;;;;;;;10.18;2.78;;;15.80;99.90;;;;;;4973242;28;20074;-93
2022/06/11 03:10:06;;;;;;;9.95;2.50;;;15.90;99.90;;;;;;4966973;28;20378;-91
2022/06/11 03:12:32;;;;;;;11.77;2.95;;;14.80;99.90;;;;;;4954561;28;20134;-92
2022/06/11 03:14:58;;;;;;;6.78;2.00;;;14.80;99.90;;;;;;4972894;28;20126;-91
2022/06/11 03:17:23;;;;;;;13.77;2.97;;;15.90;99.90;;;;;;4966816;28;20402;-90
2022/06/11 03:19:49;;;;;;;13.88;3.50;;;14.80;99.90;;;;;;4971266;28;20070;-91
2022/06/11 03:22:17;;;;;;;7.38;2.60;;;14.80;99.90;;;;;;4966791;28;20042;-92
2022/06/11 03:24:44;;;;;;;8.35;2.83;;;15.50;99.90;;;;;;4966334;28;20090;-92
2022/06/11 03:27:10;;;;;;;11.45;3.50;;;15.70;99.90;;;;;;4971332;28;20050;-92
2022/06/11 03:29:36;;;;;;;10.82;2.80;;;14.70;99.90;;;;;;4971148;28;20105;-82
2022/06/11 03:32:03;;;;;;;12.40;3.25;;;15.70;99.90;;;;;;4972468;28;20212;-90
2022/06/11 03:34:29;;;;;;;17.33;3.67;;;14.60;99.90;;;;;;4972311;28;20521;-89
2022/06/11 03:36:57;;;;;;;8.00;2.83;;;15.80;99.90;;;;;;4971116;28;20050;-89
2022/06/11 03:39:23;;;;;;;8.43;3.30;;;14.50;99.90;;;;;;4972172;28;20045;-87
2022/06/11 03:41:54;;;;;;;13.40;3.38;;;15.30;99.90;;;;;;4973301;28;20042;-91
2022/06/11 03:44:24;;;;;;;13.95;3.47;;;14.50;99.90;;;;;;4968838;28;20087;-88
2022/06/11 03:46:50;;;;;;;9.73;3.10;;;14.50;99.90;;;;;;4953555;28;20050;-91
2022/06/11 03:49:17;;;;;;;9.02;3.00;;;14.50;99.90;;;;;;4967180;28;20046;-91
2022/06/11 03:51:45;;;;;;;9.82;2.97;;;14.50;99.90;;;;;;4971295;28;20514;-85
2022/06/11 03:54:15;;;;;;;11.68;2.90;;;14.50;99.90;;;;;;4971564;28;20054;-92
2022/06/11 03:56:42;;;;;;;11.63;3.08;;;14.40;99.90;;;;;;4971159;28;20031;-85
2022/06/11 03:59:08;;;;;;;9.52;3.05;;;14.40;99.90;;;;;;4972346;28;20039;-90
2022/06/11 04:01:34;;;;;;;13.98;3.72;;;14.40;99.90;;;;;;4971468;28;20032;-88
2022/06/11 04:04:06;;;;;;;12.68;3.47;;;14.40;99.90;;;;;;4978706;28;20117;-88
2022/06/11 04:06:36;;;;;;;9.52;2.70;;;14.40;99.90;;;;;;4973382;28;20450;-82
2022/06/11 04:09:05;;;;;;;16.48;3.40;;;14.40;99.90;;;;;;4989332;28;20058;-84
2022/06/11 04:11:34;;;;;;;13.88;3.33;;;14.40;99.90;;;;;;4965745;28;20430;-85
2022/06/11 04:13:59;;;;;;;11.85;2.78;;;14.40;99.90;;;;;;4970341;28;20096;-88
2022/06/11 04:16:33;;;;;;;19.48;3.67;;;14.70;99.90;;;;;;4971780;28;20501;-84
2022/06/11 04:19:03;;;;;;;10.88;2.78;;;14.50;99.90;;;;;;4967121;28;20066;-87
2022/06/11 04:21:37;;;;;;;13.23;3.17;;;14.40;99.90;;;;;;4970853;28;20646;-86
2022/06/11 04:24:06;;;;;;;12.27;3.20;;;15.90;99.90;;;;;;4973313;28;20054;-87
2022/06/11 04:26:36;;;;;;;15.15;3.30;;;14.50;99.90;;;;;;4967155;28;20118;-88
2022/06/11 04:29:05;;;;;;;19.02;3.75;;;14.50;99.90;;;;;;4967433;28;20047;-83
2022/06/11 04:31:32;;;;;;;13.90;3.45;;;14.60;99.90;;;;;;4973258;28;20476;-88
2022/06/11 04:33:58;;;;;;;16.10;3.28;;;14.50;99.90;;;;;;4953507;28;20054;-88
2022/06/11 04:36:26;;;;;;;17.98;3.83;;;14.60;99.90;;;;;;4951978;28;20038;-90
2022/06/11 04:38:52;;;;;;;22.67;3.55;;;16.00;99.90;;;;;;4973875;28;20090;-86
2022/06/11 04:41:19;;;;;;;19.35;3.42;;;14.60;99.90;;;;;;4968239;28;20055;-88
2022/06/11 04:43:44;;;;;;;13.30;3.22;;;13.90;99.90;;;;;;4972106;28;20057;-88
2022/06/11 04:46:11;;;;;;;15.98;3.70;;;15.80;99.90;;;;;;4972492;28;20129;-83
2022/06/11 04:48:37;;;;;;;10.25;2.72;;;14.70;99.90;;;;;;4955405;28;20065;-81
2022/06/11 04:51:05;;;;;;;16.13;3.55;;;14.60;99.90;;;;;;4978646;28;20047;-86
2022/06/11 04:53:30;;;;;;;13.65;3.72;;;15.40;99.90;;;;;;4977926;28;20047;-91
2022/06/11 04:55:59;;;;;;;18.50;3.25;;;14.70;99.90;;;;;;4972381;28;20043;-87
2022/06/11 04:58:28;;;;;;;19.20;3.50;;;14.70;99.90;;;;;;4957460;28;20050;-87
2022/06/11 05:00:54;;;;;;;14.43;3.28;;;14.70;99.90;;;;;;4976759;28;20414;-87
2022/06/11 05:03:20;;;;;;;18.38;4.35;;;15.90;99.90;;;;;;4955970;28;20442;-92
2022/06/11 05:05:47;;;;;;;10.48;3.28;;;14.80;99.90;;;;;;4976404;28;20046;-81
2022/06/11 05:08:15;;;;;;;16.63;3.60;;;15.30;99.90;;;;;;4973495;28;20047;-88
2022/06/11 05:10:50;;;;;;;18.77;3.60;;;14.70;99.90;;;;;;4980773;28;20046;-87
2022/06/11 05:13:16;;;;;;;15.52;3.83;;;15.20;99.90;;;;;;4970182;28;20038;-86
2022/06/11 05:15:45;;;;;;;23.40;3.90;;;14.90;99.90;;;;;;4973451;28;20098;-85
2022/06/11 05:18:13;;;;;;;19.15;3.92;;;14.90;99.90;;;;;;4954072;28;20070;-87
2022/06/11 05:20:39;;;;;;;13.88;3.28;;;14.90;99.90;;;;;;4974834;28;20581;-87
2022/06/11 05:23:05;;;;;;;21.42;4.03;;;15.00;99.90;;;;;;4954856;28;20478;-91
2022/06/11 05:25:33;;;;;;;18.92;4.43;;;15.00;99.90;;;;;;4957775;28;20039;-91
2022/06/11 05:27:59;;;;;;;20.67;4.07;;;15.10;99.90;;;;;;4975476;28;20369;-86
2022/06/11 05:30:31;;;;;;;16.98;3.95;;;15.20;99.90;;;;;;4958163;28;20082;-92
2022/06/11 05:32:58;;;;;;;26.20;4.45;;;14.40;99.90;;;;;;4956627;28;20491;-94
2022/06/11 05:35:29;;;;;;;19.65;3.78;;;15.20;99.90;;;;;;4974149;28;20113;-90
2022/06/11 05:37:57;;;;;;;18.17;3.65;;;15.40;99.90;;;;;;4975971;28;20082;-93
2022/06/11 05:40:27;;;;;;;21.05;4.15;;;15.20;99.90;;;;;;4974366;28;20062;-92
2022/06/11 05:42:53;;;;;;;17.30;4.22;;;16.10;99.90;;;;;;4973310;28;20125;-94
2022/06/11 05:45:35;;;;;;;24.60;5.20;;;15.30;99.90;;;;;;4991476;28;20170;-89
2022/06/11 05:48:14;;;;;;;22.58;4.75;;;15.40;99.90;;;;;;4975533;28;20066;-92
2022/06/11 05:50:52;;;;;;;22.08;4.90;;;15.30;99.90;;;;;;4972321;28;20054;-87
2022/06/11 05:53:20;;;;;;;27.13;5.10;;;15.50;99.90;;;;;;4980610;28;20050;-88
2022/06/11 05:55:49;;;;;;;26.80;4.97;;;16.40;99.90;;;;;;4980176;28;20492;-92
2022/06/11 05:58:19;;;;;;;26.88;6.45;;;14.40;99.90;;;;;;4978783;28;20498;-85
2022/06/11 06:00:45;;;;;;;26.38;5.43;;;16.60;99.90;;;;;;4978665;28;20503;-88
2022/06/11 06:03:12;;;;;;;24.38;5.28;;;16.10;99.90;;;;;;4958711;28;20074;-82
2022/06/11 06:05:43;;;;;;;23.98;5.57;;;15.60;99.90;;;;;;4973850;28;20499;-80
2022/06/11 06:08:09;;;;;;;28.75;5.72;;;15.70;99.90;;;;;;4955598;28;20047;-84
2022/06/11 06:10:48;;;;;;;24.20;4.95;;;15.70;99.90;;;;;;4959050;28;20053;-86
2022/06/11 06:16:10;;;;;;;26.88;5.65;;;15.80;99.90;;;;;;5025677;23;20057;-85
2022/06/11 06:18:36;;;;;;;28.50;5.97;;;16.90;99.90;;;;;;5024644;28;20103;-86
2022/06/11 06:21:07;;;;;;;26.95;6.15;;;16.10;99.90;;;;;;5044115;28;20052;-90
2022/06/11 06:23:45;;;;;;;28.65;6.15;;;15.90;99.90;;;;;;5026587;28;20045;-89
2022/06/11 06:26:11;;;;;;;24.55;5.47;;;16.00;99.90;;;;;;5027689;28;20040;-90
2022/06/11 06:28:37;;;;;;;26.48;8.10;;;16.00;99.90;;;;;;5041119;28;20092;-91
2022/06/11 06:31:05;;;;;;;26.05;6.57;;;16.00;99.90;;;;;;5037991;28;20045;-90
2022/06/11 06:33:32;;;;;;;24.83;6.18;;;16.10;99.90;;;;;;5041047;28;20575;-89
2022/06/11 06:36:05;;;;;;;30.73;6.05;;;16.20;99.90;;;;;;5024774;28;20423;-90
2022/06/11 06:38:44;;;;;;;25.00;5.15;;;16.20;99.90;;;;;;5038385;28;20045;-94
2022/06/11 06:41:10;;;;;;;24.55;5.18;;;17.10;99.90;;;;;;5044139;28;20038;-83
2022/06/11 06:43:37;;;;;;;21.63;5.47;;;16.70;99.90;;;;;;5028273;28;20056;-89
2022/06/11 06:46:04;;;;;;;35.20;5.75;;;16.30;99.90;;;;;;5042854;28;20396;-89
2022/06/11 06:48:29;;;;;;;27.67;5.82;;;16.30;99.90;;;;;;5023239;28;20060;-83
2022/06/11 06:50:57;;;;;;;21.60;5.75;;;16.30;99.90;;;;;;5026057;28;20041;-89
2022/06/11 06:53:23;;;;;;;31.40;5.93;;;15.70;99.90;;;;;;5027735;28;20112;-83
2022/06/11 06:55:49;;;;;;;28.23;5.97;;;16.40;99.90;;;;;;5021133;28;20123;-90
2022/06/11 06:58:21;;;;;;;29.75;6.03;;;16.40;99.90;;;;;;5030648;28;20053;-91
2022/06/11 07:00:47;;;;;;;21.05;4.93;;;16.50;99.90;;;;;;5046757;28;20115;-90
2022/06/11 07:03:14;;;;;;;22.50;4.95;;;16.50;99.90;;;;;;5020867;28;20045;-88
2022/06/11 07:05:42;;;;;;;28.88;6.65;;;16.50;99.90;;;;;;5035433;28;20071;-91
2022/06/11 07:08:08;;;;;;;25.45;5.57;;;16.50;99.90;;;;;;5029713;28;20060;-91
2022/06/11 07:10:34;;;;;;;31.17;7.32;;;16.60;99.90;;;;;;5020443;28;20033;-92
2022/06/11 07:13:01;;;;;;;25.77;5.70;;;16.70;99.90;;;;;;5038494;28;20057;-88
2022/06/11 07:15:27;;;;;;;22.95;5.55;;;16.70;99.90;;;;;;5038031;28;20378;-87
2022/06/11 07:18:05;;;;;;;25.90;5.82;;;16.90;99.90;;;;;;5033044;28;20052;-87
2022/06/11 07:20:33;;;;;;;25.50;5.47;;;17.60;99.90;;;;;;5043175;28;20075;-91
2022/06/11 07:23:04;;;;;;;26.55;6.63;;;16.90;99.90;;;;;;5035490;28;20037;-81
2022/06/11 07:25:30;;;;;;;22.08;4.80;;;16.90;99.90;;;;;;5017962;28;20077;-82
2022/06/11 07:28:02;;;;;;;20.70;5.50;;;16.90;99.90;;;;;;5035055;28;20507;-81
2022/06/11 07:30:32;;;;;;;20.95;5.47;;;17.10;99.90;;;;;;5034837;28;20038;-80
2022/06/11 07:33:15;;;;;;;29.17;5.40;;;17.10;99.90;;;;;;5030472;28;20033;-79
2022/06/11 07:35:41;;;;;;;27.42;5.82;;;17.10;99.90;;;;;;5014001;28;20041;-79
2022/06/11 07:38:11;;;;;;;32.55;9.90;;;18.00;99.90;;;;;;5029155;28;20518;-78
2022/06/11 07:40:37;;;;;;;26.13;6.20;;;17.40;99.90;;;;;;5034938;28;20068;-80
2022/06/11 07:43:07;;;;;;;25.15;6.57;;;17.20;99.90;;;;;;5039174;28;20062;-79
2022/06/11 07:45:37;;;;;;;22.60;4.80;;;17.20;99.90;;;;;;5031881;28;20048;-80
2022/06/11 07:48:03;;;;;;;25.33;5.28;;;17.30;99.90;;;;;;5041859;28;20040;-82
2022/06/11 07:50:41;;;;;;;24.10;5.80;;;17.40;99.90;;;;;;5038641;28;20037;-78
2022/06/11 07:53:08;;;;;;;18.38;4.60;;;17.50;99.90;;;;;;5041925;28;20485;-80
2022/06/11 07:55:37;;;;;;;25.70;5.65;;;17.50;99.90;;;;;;5040316;28;20120;-80
2022/06/11 07:58:04;;;;;;;25.10;4.68;;;18.50;99.90;;;;;;5034365;28;20072;-80
2022/06/11 08:00:36;;;;;;;21.02;5.45;;;17.40;99.90;;;;;;5032864;28;20124;-81
2022/06/11 08:03:05;;;;;;;28.38;5.63;;;18.70;99.90;;;;;;5034609;28;20138;-80
2022/06/11 08:05:34;;;;;;;27.90;5.43;;;17.60;99.90;;;;;;5032269;28;20060;-82
2022/06/11 08:08:01;;;;;;;25.10;5.00;;;17.70;99.90;;;;;;5033535;28;20076;-80
2022/06/11 08:10:28;;;;;;;22.00;4.07;;;18.40;99.90;;;;;;5019332;28;20044;-81
2022/06/11 08:12:54;;;;;;;19.40;5.03;;;18.80;99.90;;;;;;5033673;28;20128;-81
2022/06/11 08:15:20;;;;;;;17.77;4.43;;;17.70;99.90;;;;;;5040474;28;20198;-81
2022/06/11 08:17:49;;;;;;;24.63;5.15;;;17.70;99.90;;;;;;5022235;28;20138;-81
2022/06/11 08:20:21;;;;;;;25.70;5.13;;;17.70;99.90;;;;;;5032477;28;20069;-81
2022/06/11 08:22:47;;;;;;;22.80;4.68;;;17.70;99.90;;;;;;5023457;28;20053;-80
2022/06/11 08:25:13;;;;;;;23.02;5.03;;;17.80;99.90;;;;;;5033915;28;20864;-82
2022/06/11 08:27:38;;;;;;;22.33;5.60;;;17.90;99.90;;;;;;5034400;28;20432;-81
2022/06/11 08:30:05;;;;;;;24.75;4.82;;;17.90;99.90;;;;;;5030735;28;20040;-80
2022/06/11 08:32:33;;;;;;;23.83;5.13;;;17.90;99.90;;;;;;5029834;28;20042;-80
2022/06/11 08:34:59;;;;;;;23.83;4.72;;;18.70;99.90;;;;;;5038600;28;20064;-81
2022/06/11 08:37:25;;;;;;;29.00;5.45;;;18.00;99.90;;;;;;5042569;28;20124;-81
2022/06/11 08:39:51;;;;;;;20.70;5.07;;;18.10;99.90;;;;;;5022360;28;20041;-82
2022/06/11 08:42:51;;;;;;;23.20;3.45;;;18.20;99.90;;;;;;5021869;28;20128;-81
2022/06/11 08:45:23;;;;;;;19.27;4.35;;;18.20;99.90;;;;;;5033967;28;20065;-81
2022/06/11 08:47:54;;;;;;;26.60;5.30;;;18.20;99.90;;;;;;5025446;28;20041;-81
2022/06/11 08:50:32;;;;;;;19.38;4.72;;;18.50;99.90;;;;;;5029352;28;20090;-81
2022/06/11 08:52:59;;;;;;;16.45;3.13;;;18.30;99.90;;;;;;5045712;28;20056;-82
2022/06/11 08:55:31;;;;;;;18.48;4.53;;;18.30;99.90;;;;;;5023714;28;20037;-82
2022/06/11 08:58:29;;;;;;;21.45;4.63;;;18.30;99.90;;;;;;5027055;28;20060;-81
2022/06/11 09:00:57;;;;;;;19.92;4.18;;;18.30;99.90;;;;;;5038141;28;20125;-81
2022/06/11 09:03:45;;;;;;;17.92;3.85;;;18.40;99.90;;;;;;5042058;28;20391;-80
2022/06/11 09:06:27;;;;;;;27.63;5.70;;;18.50;99.90;;;;;;5033835;28;20067;-77
2022/06/11 09:09:15;;;;;;;24.25;4.97;;;18.50;99.90;;;;;;5037122;28;20852;-78
2022/06/11 09:12:25;;;;;;;29.95;5.32;;;18.50;99.90;;;;;;5013719;28;20033;-83
2022/06/11 09:15:02;;;;;;;17.73;3.58;;;18.60;99.90;;;;;;4965344;28;20096;-79
2022/06/11 09:17:46;;;;;;;14.30;3.53;;;18.70;99.90;;;;;;5032087;28;20131;-79
2022/06/11 09:20:22;;;;;;;18.25;4.43;;;18.60;99.90;;;;;;5018979;28;20041;-85
2022/06/11 09:23:15;;;;;;;16.80;3.83;;;18.70;99.90;;;;;;5034661;28;20045;-87
2022/06/11 09:25:59;;;;;;;16.55;3.88;;;19.20;99.90;;;;;;5043116;28;20110;-83
2022/06/11 09:28:44;;;;;;;15.45;3.10;;;18.80;99.90;;;;;;5014937;28;20041;-76
2022/06/11 09:31:27;;;;;;;17.08;3.90;;;18.80;99.90;;;;;;5038866;28;20119;-76
2022/06/11 09:34:19;;;;;;;17.15;4.15;;;18.80;99.90;;;;;;5039041;28;20048;-79
2022/06/11 09:36:56;;;;;;;31.10;9.43;;;18.80;99.90;;;;;;5037816;28;20045;-80
2022/06/11 09:39:46;;;;;;;15.32;3.03;;;18.90;99.90;;;;;;5031467;28;20156;-79
2022/06/11 09:42:42;;;;;;;13.30;2.80;;;19.00;99.90;;;;;;5036316;28;20084;-80
2022/06/11 09:45:20;;;;;;;18.27;3.28;;;19.10;99.90;;;;;;5021673;28;20064;-79
2022/06/11 09:47:58;;;;;;;16.88;3.65;;;19.20;99.90;;;;;;5035509;28;20057;-79
2022/06/11 09:50:45;;;;;;;18.90;4.05;;;19.10;99.90;;;;;;5029334;28;20080;-81
2022/06/11 09:53:42;;;;;;;14.20;2.83;;;19.10;99.90;;;;;;5037630;28;20045;-81
2022/06/11 09:56:37;;;;;;;13.88;2.80;;;19.10;99.90;;;;;;5019018;28;20128;-80
2022/06/11 09:59:24;;;;;;;16.83;3.10;;;19.20;99.90;;;;;;5015552;28;20049;-77
2022/06/11 10:02:10;;;;;;;11.88;3.17;;;19.30;99.90;;;;;;5011172;28;20092;-82
2022/06/11 10:04:39;;;;;;;16.85;4.95;;;19.30;99.90;;;;;;5028063;28;20484;-80
2022/06/11 10:07:11;;;;;;;19.02;3.88;;;20.30;99.90;;;;;;5039624;28;20100;-84
2022/06/11 10:09:43;;;;;;;15.93;3.08;;;20.00;99.90;;;;;;5017387;28;20374;-87
2022/06/11 10:12:23;;;;;;;14.52;2.75;;;19.40;99.90;;;;;;5034271;28;20111;-88
2022/06/11 10:15:00;;;;;;;10.52;2.75;;;19.90;99.90;;;;;;5031484;28;20065;-87
2022/06/11 10:17:54;;;;;;;17.33;3.17;;;19.30;99.90;;;;;;5028764;28;20045;-87
2022/06/11 10:20:32;;;;;;;15.25;3.10;;;19.40;99.90;;;;;;5010373;28;20393;-84
2022/06/11 10:23:38;;;;;;;13.23;2.88;;;19.40;99.90;;;;;;5044205;28;20044;-84
2022/06/11 10:26:29;;;;;;;14.98;3.97;;;19.40;99.90;;;;;;5038079;28;20073;-89
2022/06/11 10:29:15;;;;;;;17.70;2.95;;;19.40;99.90;;;;;;5038231;28;20091;-93
2022/06/11 10:31:48;;;;;;;11.30;2.28;;;19.60;99.90;;;;;;5020602;28;20040;-88
2022/06/11 10:34:26;;;;;;;13.88;2.75;;;19.70;99.90;;;;;;5033242;28;20046;-92
2022/06/11 10:37:00;;;;;;;8.88;2.70;;;19.70;99.90;;;;;;5021165;28;20504;-90
2022/06/11 10:39:37;;;;;;;14.65;3.03;;;19.70;99.90;;;;;;5036862;28;20049;-82
2022/06/11 10:42:33;;;;;;;12.95;2.35;;;19.70;99.90;;;;;;4994202;28;20073;-82
2022/06/11 10:44:59;;;;;;;14.88;2.90;;;19.70;99.90;;;;;;5028265;28;20060;-83
2022/06/11 10:47:37;;;;;;;12.70;3.15;;;19.30;99.90;;;;;;5015511;28;20045;-85
2022/06/11 10:50:12;;;;;;;12.40;2.90;;;19.80;99.90;;;;;;5041004;28;20045;-81
2022/06/11 10:52:53;;;;;;;12.43;3.08;;;19.70;99.90;;;;;;5035866;28;20083;-83
2022/06/11 10:55:41;;;;;;;12.90;3.42;;;19.80;99.90;;;;;;5041069;28;20045;-85
2022/06/11 10:58:25;;;;;;;18.23;3.47;;;19.90;99.90;;;;;;5023811;28;20037;-86
2022/06/11 11:01:03;;;;;;;;;;;20.00;99.90;;;;;;5024882;28;20079;-83
2022/06/11 11:03:43;;;;;;;17.05;2.85;;;19.90;99.90;;;;;;5040052;28;19979;-86
2022/06/11 11:06:17;;;;;;;12.23;2.65;;;20.00;99.90;;;;;;5045941;28;20048;-88
2022/06/11 11:08:58;;;;;;;10.63;2.17;;;20.00;99.90;;;;;;5022263;28;20049;-82
2022/06/11 11:11:29;;;;;;;14.43;2.60;;;20.90;99.90;;;;;;5027022;28;20050;-87
2022/06/11 11:14:13;;;;;;;13.32;3.05;;;20.20;99.90;;;;;;5029691;28;20546;-86
2022/06/11 11:16:40;;;;;;;17.15;3.55;;;20.10;99.90;;;;;;5035204;28;20046;-86
2022/06/11 11:19:16;;;;;;;13.68;3.53;;;20.60;99.90;;;;;;5022596;28;20046;-88
2022/06/11 11:21:49;;;;;;;16.38;4.00;;;20.20;99.90;;;;;;5042483;28;20140;-85
2022/06/11 11:24:43;;;;;;;20.60;5.20;;;20.20;99.90;;;;;;5023272;28;20045;-87
2022/06/11 11:27:21;;;;;;;12.50;2.53;;;20.30;99.90;;;;;;5024216;28;20037;-85
2022/06/11 11:29:55;;;;;;;14.68;2.78;;;20.40;99.90;;;;;;5044726;28;20045;-84
2022/06/11 11:32:33;;;;;;;15.13;4.03;;;20.40;99.90;;;;;;5020974;28;20036;-85
2022/06/11 11:35:19;;;;;;;13.60;3.92;;;20.50;99.90;;;;;;5033552;28;20124;-85
2022/06/11 11:38:03;;;;;;;12.43;2.58;;;20.60;99.90;;;;;;5031550;28;20053;-89
2022/06/11 11:40:33;;;;;;;13.35;3.13;;;20.70;99.90;;;;;;5008572;28;20043;-82
2022/06/11 11:43:05;;;;;;;18.38;5.50;;;20.90;99.90;;;;;;5034831;28;20075;-83
2022/06/11 11:45:44;;;;;;;15.75;3.40;;;21.00;99.90;;;;;;5013212;28;20041;-85
2022/06/11 11:48:32;;;;;;;9.00;2.25;;;21.10;99.40;;;;;;5028866;28;20120;-79
2022/06/11 11:51:37;;;;;;;11.80;2.55;;;21.10;99.90;;;;;;5028362;28;20092;-88
2022/06/11 11:54:27;;;;;;;10.80;2.47;;;21.10;99.20;;;;;;5032054;28;20045;-93
2022/06/11 11:57:05;;;;;;;9.30;2.25;;;21.10;98.60;;;;;;5023313;28;20042;-90
2022/06/11 11:59:46;;;;;;;13.90;2.50;;;21.00;99.00;;;;;;5006715;28;20172;-79
2022/06/11 12:02:37;;;;;;;10.70;2.45;;;21.00;98.00;;;;;;5005551;28;20081;-82
2022/06/11 12:05:31;;;;;;;9.65;3.15;;;21.00;97.60;;;;;;5028589;28;20095;-83
2022/06/11 12:07:58;;;;;;;7.68;1.77;;;21.20;97.60;;;;;;4999926;28;20454;-82
2022/06/11 12:10:39;;;;;;;8.63;1.80;;;21.30;95.70;;;;;;5000696;28;20083;-82
2022/06/11 12:13:30;;;;;;;11.07;2.95;;;21.40;95.60;;;;;;5016126;28;20480;-84
2022/06/11 12:16:02;;;;;;;9.00;2.65;;;21.60;95.30;;;;;;5007242;28;20079;-82
2022/06/11 12:18:37;;;;;;;11.32;2.03;;;21.50;94.10;;;;;;5039887;28;20574;-82
2022/06/11 12:21:10;;;;;;;11.25;2.95;;;21.60;94.10;;;;;;5035491;28;20117;-82
2022/06/11 12:23:47;;;;;;;11.27;2.83;;;21.80;93.60;;;;;;5020389;28;20041;-82
2022/06/11 12:26:20;;;;;;;8.98;2.30;;;21.80;94.80;;;;;;5017919;28;20130;-84
2022/06/11 12:28:52;;;;;;;9.35;1.73;;;21.80;93.70;;;;;;5039854;28;20060;-80
2022/06/11 12:31:18;;;;;;;8.73;2.63;;;21.90;93.20;;;;;;5027196;28;20048;-78
2022/06/11 12:33:46;;;;;;;12.00;2.70;;;22.00;93.40;;;;;;5046780;28;20041;-86
2022/06/11 12:36:40;;;;;;;9.35;2.00;;;21.90;91.90;;;;;;5050464;28;20040;-90
2022/06/11 12:39:27;;;;;;;6.97;1.48;;;21.90;91.50;;;;;;5030622;28;20046;-81
2022/06/11 12:42:35;;;;;;;8.10;1.92;;;21.90;91.20;;;;;;5042137;28;20053;-92
2022/06/11 12:45:29;;;;;;;11.45;2.53;;;21.50;90.80;;;;;;5031033;28;20069;-80
2022/06/11 12:48:16;;;;;;;11.82;2.30;;;21.90;90.40;;;;;;5050414;28;20045;-82
2022/06/11 12:51:07;;;;;;;6.50;1.27;;;21.90;91.50;;;;;;5022766;28;20041;-84
2022/06/11 12:53:58;;;;;;;6.85;1.90;;;22.00;89.60;;;;;;5044751;28;20064;-82
2022/06/11 12:56:42;;;;;;;7.95;1.80;;;22.10;89.10;;;;;;5048004;28;20076;-82
2022/06/11 12:59:33;;;;;;;6.95;1.42;;;22.00;90.30;;;;;;5023344;28;20038;-86
2022/06/11 13:02:14;;;;;;;11.10;2.17;;;22.10;89.60;;;;;;5020529;28;20614;-83
2022/06/11 13:05:26;;;;;;;9.40;1.73;;;22.10;90.90;;;;;;5031301;28;20040;-83
2022/06/11 13:08:10;;;;;;;13.52;3.03;;;22.20;91.50;;;;;;5037393;28;20041;-84
2022/06/11 13:10:44;;;;;;;;;;;22.10;91.50;;;;;;5046685;28;20037;-83
2022/06/11 13:13:30;;;;;;;8.68;2.58;;;22.00;91.70;;;;;;5026624;28;20148;-82
2022/06/11 13:16:15;;;;;;;12.52;2.28;;;22.10;92.40;;;;;;5031191;28;20076;-82
2022/06/11 13:18:48;;;;;;;11.85;2.72;;;22.10;92.10;;;;;;5026533;28;20049;-80
2022/06/11 13:21:26;;;;;;;9.10;1.83;;;22.10;92.00;;;;;;5046366;28;20412;-82
2022/06/11 13:24:19;;;;;;;12.52;2.85;;;22.10;91.80;;;;;;5028933;28;20129;-81